sensor_id;sensor_type;location;lat;lon;timestamp;temperature;humidity
21459;DHT22;10891;49.350;19.386;2022-09-03T00:00:03;6.50;99.90
21459;DHT22;10891;49.350;19.386;2022-09-03T00:02:37;6.50;99.90
21459;DHT22;10891;49.350;19.386;2022-09-03T00:05:08;6.50;99.90
21459;DHT22;10891;49.350;19.386;2022-09-03T00:07:41;6.50;99.90
21459;DHT22;10891;49.350;19.386;2022-09-03T00:10:15;6.50;99.90
21459;DHT22;10891;49.350;19.386;2022-09-03T00:12:45;6.40;99.90
21459;DHT22;10891;49.350;19.386;2022-09-03T00:15:16;6.30;99.90
21459;DHT22;10891;49.350;19.386;2022-09-03T00:17:46;6.30;99.90
21459;DHT22;10891;49.350;19.386;2022-09-03T00:20:18;6.30;99.90
21459;DHT22;10891;49.350;19.386;2022-09-03T00:22:47;6.30;99.90
21459;DHT22;10891;49.350;19.386;2022-09-03T00:25:20;6.30;99.90
21459;DHT22;10891;49.350;19.386;2022-09-03T00:27:52;6.30;99.90
21459;DHT22;10891;49.350;19.386;2022-09-03T00:30:21;6.20;99.90
21459;DHT22;10891;49.350;19.386;2022-09-03T00:32:51;6.20;99.90
21459;DHT22;10891;49.350;19.386;2022-09-03T00:35:23;6.10;99.90
21459;DHT22;10891;49.350;19.386;2022-09-03T00:37:53;6.10;99.90
21459;DHT22;10891;49.350;19.386;2022-09-03T00:40:42;6.10;99.90
21459;DHT22;10891;49.350;19.386;2022-09-03T00:43:18;6.10;99.90
21459;DHT22;10891;49.350;19.386;2022-09-03T00:45:55;6.10;99.90
21459;DHT22;10891;49.350;19.386;2022-09-03T00:48:26;6.10;99.90
21459;DHT22;10891;49.350;19.386;2022-09-03T00:51:07;6.10;99.90
21459;DHT22;10891;49.350;19.386;2022-09-03T00:53:42;6.20;99.90
21459;DHT22;10891;49.350;19.386;2022-09-03T00:56:21;6.20;99.90
21459;DHT22;10891;49.350;19.386;2022-09-03T00:59:01;6.20;99.90
21459;DHT22;10891;49.350;19.386;2022-09-03T01:01:37;6.20;99.90
21459;DHT22;10891;49.350;19.386;2022-09-03T01:04:27;6.20;99.90
21459;DHT22;10891;49.350;19.386;2022-09-03T01:07:04;6.10;99.90
21459;DHT22;10891;49.350;19.386;2022-09-03T01:09:43;6.10;99.90
21459;DHT22;10891;49.350;19.386;2022-09-03T01:12:19;6.00;99.90
21459;DHT22;10891;49.350;19.386;2022-09-03T01:14:56;6.00;99.90
21459;DHT22;10891;49.350;19.386;2022-09-03T01:17:33;5.90;99.90
21459;DHT22;10891;49.350;19.386;2022-09-03T01:20:19;5.90;99.90
21459;DHT22;10891;49.350;19.386;2022-09-03T01:23:12;6.00;99.90
21459;DHT22;10891;49.350;19.386;2022-09-03T01:25:53;5.90;99.90
21459;DHT22;10891;49.350;19.386;2022-09-03T01:28:29;5.80;99.90
21459;DHT22;10891;49.350;19.386;2022-09-03T01:31:08;5.80;99.90
21459;DHT22;10891;49.350;19.386;2022-09-03T01:33:39;5.80;99.90
21459;DHT22;10891;49.350;19.386;2022-09-03T01:36:15;5.70;99.90
21459;DHT22;10891;49.350;19.386;2022-09-03T01:38:50;5.80;99.90
21459;DHT22;10891;49.350;19.386;2022-09-03T01:41:26;5.80;99.90
21459;DHT22;10891;49.350;19.386;2022-09-03T01:44:23;5.80;99.90
21459;DHT22;10891;49.350;19.386;2022-09-03T01:47:01;5.80;99.90
21459;DHT22;10891;49.350;19.386;2022-09-03T01:49:36;5.80;99.90
21459;DHT22;10891;49.350;19.386;2022-09-03T01:52:10;5.80;99.90
21459;DHT22;10891;49.350;19.386;2022-09-03T01:54:50;5.80;99.90
21459;DHT22;10891;49.350;19.386;2022-09-03T02:00:12;5.70;99.90
21459;DHT22;10891;49.350;19.386;2022-09-03T02:02:41;5.70;99.90
21459;DHT22;10891;49.350;19.386;2022-09-03T02:05:11;5.70;99.90
21459;DHT22;10891;49.350;19.386;2022-09-03T02:07:41;5.70;99.90
21459;DHT22;10891;49.350;19.386;2022-09-03T02:10:11;5.70;99.90
21459;DHT22;10891;49.350;19.386;2022-09-03T02:12:39;5.70;99.90
21459;DHT22;10891;49.350;19.386;2022-09-03T02:15:12;5.60;99.90
21459;DHT22;10891;49.350;19.386;2022-09-03T02:17:40;5.50;99.90
21459;DHT22;10891;49.350;19.386;2022-09-03T02:20:11;5.50;99.90
21459;DHT22;10891;49.350;19.386;2022-09-03T02:22:39;5.50;99.90
21459;DHT22;10891;49.350;19.386;2022-09-03T02:25:08;5.40;99.90
21459;DHT22;10891;49.350;19.386;2022-09-03T02:27:36;5.30;99.90
21459;DHT22;10891;49.350;19.386;2022-09-03T02:30:03;5.30;99.90
21459;DHT22;10891;49.350;19.386;2022-09-03T02:32:32;5.30;99.90
21459;DHT22;10891;49.350;19.386;2022-09-03T02:34:58;5.30;99.90
21459;DHT22;10891;49.350;19.386;2022-09-03T02:37:25;5.30;99.90
21459;DHT22;10891;49.350;19.386;2022-09-03T02:39:52;5.30;99.90
21459;DHT22;10891;49.350;19.386;2022-09-03T02:42:19;5.20;99.90
21459;DHT22;10891;49.350;19.386;2022-09-03T02:44:49;5.30;99.90
21459;DHT22;10891;49.350;19.386;2022-09-03T02:47:17;5.20;99.90
21459;DHT22;10891;49.350;19.386;2022-09-03T02:49:46;5.30;99.90
21459;DHT22;10891;49.350;19.386;2022-09-03T02:52:14;5.30;99.90
21459;DHT22;10891;49.350;19.386;2022-09-03T02:54:41;5.30;99.90
21459;DHT22;10891;49.350;19.386;2022-09-03T02:57:11;5.20;99.90
21459;DHT22;10891;49.350;19.386;2022-09-03T02:59:38;5.20;99.90
21459;DHT22;10891;49.350;19.386;2022-09-03T03:02:06;5.10;99.90
21459;DHT22;10891;49.350;19.386;2022-09-03T03:04:33;5.10;99.90
21459;DHT22;10891;49.350;19.386;2022-09-03T03:07:01;5.10;99.90
21459;DHT22;10891;49.350;19.386;2022-09-03T03:09:28;5.00;99.90
21459;DHT22;10891;49.350;19.386;2022-09-03T03:11:55;5.10;99.90
21459;DHT22;10891;49.350;19.386;2022-09-03T03:14:22;5.10;99.90
21459;DHT22;10891;49.350;19.386;2022-09-03T03:16:49;5.10;99.90
21459;DHT22;10891;49.350;19.386;2022-09-03T03:19:16;5.10;99.90
21459;DHT22;10891;49.350;19.386;2022-09-03T03:21:43;5.10;99.90
21459;DHT22;10891;49.350;19.386;2022-09-03T03:24:11;5.10;99.90
21459;DHT22;10891;49.350;19.386;2022-09-03T03:26:38;5.00;99.90
21459;DHT22;10891;49.350;19.386;2022-09-03T03:29:05;4.90;99.90
21459;DHT22;10891;49.350;19.386;2022-09-03T03:31:33;4.90;99.90
21459;DHT22;10891;49.350;19.386;2022-09-03T03:34:01;4.90;99.90
21459;DHT22;10891;49.350;19.386;2022-09-03T03:36:30;4.80;99.90
21459;DHT22;10891;49.350;19.386;2022-09-03T03:38:58;4.80;99.90
21459;DHT22;10891;49.350;19.386;2022-09-03T03:41:28;4.80;99.90
21459;DHT22;10891;49.350;19.386;2022-09-03T03:43:57;4.90;99.90
21459;DHT22;10891;49.350;19.386;2022-09-03T03:46:27;4.90;99.90
21459;DHT22;10891;49.350;19.386;2022-09-03T03:48:54;4.90;99.90
21459;DHT22;10891;49.350;19.386;2022-09-03T03:51:21;4.90;99.90
21459;DHT22;10891;49.350;19.386;2022-09-03T03:53:48;4.90;99.90
21459;DHT22;10891;49.350;19.386;2022-09-03T03:56:19;4.90;99.90
21459;DHT22;10891;49.350;19.386;2022-09-03T03:58:47;4.90;99.90
21459;DHT22;10891;49.350;19.386;2022-09-03T04:01:16;4.90;99.90
21459;DHT22;10891;49.350;19.386;2022-09-03T04:03:43;4.80;99.90
21459;DHT22;10891;49.350;19.386;2022-09-03T04:06:12;4.80;99.90
21459;DHT22;10891;49.350;19.386;2022-09-03T04:08:40;4.80;99.90
21459;DHT22;10891;49.350;19.386;2022-09-03T04:11:09;4.80;99.90
21459;DHT22;10891;49.350;19.386;2022-09-03T04:13:37;4.90;99.90
21459;DHT22;10891;49.350;19.386;2022-09-03T04:16:08;5.00;99.90
21459;DHT22;10891;49.350;19.386;2022-09-03T04:18:36;4.90;99.90
21459;DHT22;10891;49.350;19.386;2022-09-03T04:21:04;4.90;99.90
21459;DHT22;10891;49.350;19.386;2022-09-03T04:23:32;4.80;99.90
21459;DHT22;10891;49.350;19.386;2022-09-03T04:26:02;4.90;99.90
21459;DHT22;10891;49.350;19.386;2022-09-03T04:28:29;4.90;99.90
21459;DHT22;10891;49.350;19.386;2022-09-03T04:31:00;4.90;99.90
21459;DHT22;10891;49.350;19.386;2022-09-03T04:33:29;4.90;99.90
21459;DHT22;10891;49.350;19.386;2022-09-03T04:36:02;5.00;99.90
21459;DHT22;10891;49.350;19.386;2022-09-03T04:38:31;5.10;99.90
21459;DHT22;10891;49.350;19.386;2022-09-03T04:40:58;5.20;99.90
21459;DHT22;10891;49.350;19.386;2022-09-03T04:43:25;5.30;99.90
21459;DHT22;10891;49.350;19.386;2022-09-03T04:45:56;5.30;99.90
21459;DHT22;10891;49.350;19.386;2022-09-03T04:48:23;5.40;99.90
21459;DHT22;10891;49.350;19.386;2022-09-03T04:50:52;5.60;99.90
21459;DHT22;10891;49.350;19.386;2022-09-03T04:53:21;5.90;99.90
21459;DHT22;10891;49.350;19.386;2022-09-03T04:55:48;6.10;99.90
21459;DHT22;10891;49.350;19.386;2022-09-03T04:58:15;6.50;99.90
21459;DHT22;10891;49.350;19.386;2022-09-03T05:00:42;6.80;99.90
21459;DHT22;10891;49.350;19.386;2022-09-03T05:03:09;7.00;99.90
21459;DHT22;10891;49.350;19.386;2022-09-03T05:05:36;7.00;99.90
21459;DHT22;10891;49.350;19.386;2022-09-03T05:08:04;7.30;99.90
21459;DHT22;10891;49.350;19.386;2022-09-03T05:10:32;7.70;99.90
21459;DHT22;10891;49.350;19.386;2022-09-03T05:13:00;8.00;99.90
21459;DHT22;10891;49.350;19.386;2022-09-03T05:15:27;8.30;99.90
21459;DHT22;10891;49.350;19.386;2022-09-03T05:17:58;8.40;99.90
21459;DHT22;10891;49.350;19.386;2022-09-03T05:20:26;8.50;99.90
21459;DHT22;10891;49.350;19.386;2022-09-03T05:22:55;8.80;99.90
21459;DHT22;10891;49.350;19.386;2022-09-03T05:25:24;9.30;99.90
21459;DHT22;10891;49.350;19.386;2022-09-03T05:27:51;10.30;99.90
21459;DHT22;10891;49.350;19.386;2022-09-03T05:30:18;12.00;99.90
21459;DHT22;10891;49.350;19.386;2022-09-03T05:32:47;13.10;99.90
21459;DHT22;10891;49.350;19.386;2022-09-03T05:35:14;14.00;99.90
21459;DHT22;10891;49.350;19.386;2022-09-03T05:37:41;14.10;99.90
21459;DHT22;10891;49.350;19.386;2022-09-03T05:40:08;13.40;99.90
21459;DHT22;10891;49.350;19.386;2022-09-03T05:42:37;12.70;99.90
21459;DHT22;10891;49.350;19.386;2022-09-03T05:45:06;12.00;99.90
21459;DHT22;10891;49.350;19.386;2022-09-03T05:47:34;11.60;99.90
21459;DHT22;10891;49.350;19.386;2022-09-03T05:50:01;11.30;99.90
21459;DHT22;10891;49.350;19.386;2022-09-03T05:52:28;11.90;99.90
21459;DHT22;10891;49.350;19.386;2022-09-03T05:54:56;12.60;99.90
21459;DHT22;10891;49.350;19.386;2022-09-03T05:57:23;13.60;99.90
21459;DHT22;10891;49.350;19.386;2022-09-03T05:59:51;14.50;99.90
21459;DHT22;10891;49.350;19.386;2022-09-03T06:02:18;14.80;99.90
21459;DHT22;10891;49.350;19.386;2022-09-03T06:04:45;15.20;99.90
21459;DHT22;10891;49.350;19.386;2022-09-03T06:07:12;15.20;99.90
21459;DHT22;10891;49.350;19.386;2022-09-03T06:09:39;15.20;99.90
21459;DHT22;10891;49.350;19.386;2022-09-03T06:12:06;15.50;99.90
21459;DHT22;10891;49.350;19.386;2022-09-03T06:14:33;15.30;99.90
21459;DHT22;10891;49.350;19.386;2022-09-03T06:17:01;14.70;99.90
21459;DHT22;10891;49.350;19.386;2022-09-03T06:19:28;15.00;99.90
21459;DHT22;10891;49.350;19.386;2022-09-03T06:21:55;15.20;99.90
21459;DHT22;10891;49.350;19.386;2022-09-03T06:24:22;15.30;99.90
21459;DHT22;10891;49.350;19.386;2022-09-03T06:26:52;15.80;99.90
21459;DHT22;10891;49.350;19.386;2022-09-03T06:29:19;16.10;99.90
21459;DHT22;10891;49.350;19.386;2022-09-03T06:31:46;16.20;99.50
21459;DHT22;10891;49.350;19.386;2022-09-03T06:34:16;15.90;99.90
21459;DHT22;10891;49.350;19.386;2022-09-03T06:36:44;16.00;99.90
21459;DHT22;10891;49.350;19.386;2022-09-03T06:39:11;15.70;99.90
21459;DHT22;10891;49.350;19.386;2022-09-03T06:41:37;15.50;99.90
21459;DHT22;10891;49.350;19.386;2022-09-03T06:44:06;15.40;99.90
21459;DHT22;10891;49.350;19.386;2022-09-03T06:46:37;15.20;99.90
21459;DHT22;10891;49.350;19.386;2022-09-03T06:49:07;15.40;99.90
21459;DHT22;10891;49.350;19.386;2022-09-03T06:51:36;15.70;99.90
21459;DHT22;10891;49.350;19.386;2022-09-03T06:54:05;15.50;99.90
21459;DHT22;10891;49.350;19.386;2022-09-03T06:56:33;15.50;99.90
21459;DHT22;10891;49.350;19.386;2022-09-03T06:59:04;15.40;99.90
21459;DHT22;10891;49.350;19.386;2022-09-03T07:01:33;15.50;99.90
21459;DHT22;10891;49.350;19.386;2022-09-03T07:04:01;15.60;99.90
21459;DHT22;10891;49.350;19.386;2022-09-03T07:06:30;15.20;99.90
21459;DHT22;10891;49.350;19.386;2022-09-03T07:08:59;15.10;99.90
21459;DHT22;10891;49.350;19.386;2022-09-03T07:11:27;14.60;99.90
21459;DHT22;10891;49.350;19.386;2022-09-03T07:13:56;14.70;99.90
21459;DHT22;10891;49.350;19.386;2022-09-03T07:16:25;14.70;99.90
21459;DHT22;10891;49.350;19.386;2022-09-03T07:18:53;14.70;99.90
21459;DHT22;10891;49.350;19.386;2022-09-03T07:21:22;14.30;99.90
21459;DHT22;10891;49.350;19.386;2022-09-03T07:23:50;14.10;99.90
21459;DHT22;10891;49.350;19.386;2022-09-03T07:26:20;14.00;99.90
21459;DHT22;10891;49.350;19.386;2022-09-03T07:28:48;14.40;99.90
21459;DHT22;10891;49.350;19.386;2022-09-03T07:31:17;14.40;99.90
21459;DHT22;10891;49.350;19.386;2022-09-03T07:33:44;14.30;99.90
21459;DHT22;10891;49.350;19.386;2022-09-03T07:36:13;14.30;99.90
21459;DHT22;10891;49.350;19.386;2022-09-03T07:38:41;14.20;99.90
21459;DHT22;10891;49.350;19.386;2022-09-03T07:41:10;14.10;99.90
21459;DHT22;10891;49.350;19.386;2022-09-03T07:43:40;14.00;99.90
21459;DHT22;10891;49.350;19.386;2022-09-03T07:46:08;13.80;99.90
21459;DHT22;10891;49.350;19.386;2022-09-03T07:48:37;13.90;99.90
21459;DHT22;10891;49.350;19.386;2022-09-03T07:51:04;14.00;99.90
21459;DHT22;10891;49.350;19.386;2022-09-03T07:53:32;14.10;99.90
21459;DHT22;10891;49.350;19.386;2022-09-03T07:56:03;14.00;99.90
21459;DHT22;10891;49.350;19.386;2022-09-03T07:58:31;14.20;99.90
21459;DHT22;10891;49.350;19.386;2022-09-03T08:01:03;14.20;99.90
21459;DHT22;10891;49.350;19.386;2022-09-03T08:03:30;14.30;99.90
21459;DHT22;10891;49.350;19.386;2022-09-03T08:05:59;14.30;99.90
21459;DHT22;10891;49.350;19.386;2022-09-03T08:08:27;14.40;99.90
21459;DHT22;10891;49.350;19.386;2022-09-03T08:10:53;14.50;99.90
21459;DHT22;10891;49.350;19.386;2022-09-03T08:13:22;14.50;99.90
21459;DHT22;10891;49.350;19.386;2022-09-03T08:15:53;14.40;99.90
21459;DHT22;10891;49.350;19.386;2022-09-03T08:18:21;14.50;99.90
21459;DHT22;10891;49.350;19.386;2022-09-03T08:20:48;14.50;99.90
21459;DHT22;10891;49.350;19.386;2022-09-03T08:23:15;14.70;99.90
21459;DHT22;10891;49.350;19.386;2022-09-03T08:25:42;14.80;99.90
21459;DHT22;10891;49.350;19.386;2022-09-03T08:28:09;14.80;99.90
21459;DHT22;10891;49.350;19.386;2022-09-03T08:30:36;14.70;99.90
21459;DHT22;10891;49.350;19.386;2022-09-03T08:33:03;14.80;99.90
21459;DHT22;10891;49.350;19.386;2022-09-03T08:35:32;14.80;99.90
21459;DHT22;10891;49.350;19.386;2022-09-03T08:38:00;14.90;99.90
21459;DHT22;10891;49.350;19.386;2022-09-03T08:40:31;15.00;99.90
21459;DHT22;10891;49.350;19.386;2022-09-03T08:43:07;15.00;99.90
21459;DHT22;10891;49.350;19.386;2022-09-03T08:45:37;15.00;99.90
21459;DHT22;10891;49.350;19.386;2022-09-03T08:48:08;15.20;99.90
21459;DHT22;10891;49.350;19.386;2022-09-03T08:50:40;15.30;99.90
21459;DHT22;10891;49.350;19.386;2022-09-03T08:53:14;15.40;99.90
21459;DHT22;10891;49.350;19.386;2022-09-03T08:55:51;15.60;99.90
21459;DHT22;10891;49.350;19.386;2022-09-03T08:58:20;15.70;99.90
21459;DHT22;10891;49.350;19.386;2022-09-03T09:00:50;15.50;99.90
21459;DHT22;10891;49.350;19.386;2022-09-03T09:03:34;15.70;99.90
21459;DHT22;10891;49.350;19.386;2022-09-03T09:06:13;15.70;99.90
21459;DHT22;10891;49.350;19.386;2022-09-03T09:08:51;16.00;99.90
21459;DHT22;10891;49.350;19.386;2022-09-03T09:11:37;16.00;99.90
21459;DHT22;10891;49.350;19.386;2022-09-03T09:14:13;16.10;99.90
21459;DHT22;10891;49.350;19.386;2022-09-03T09:16:48;16.20;99.90
21459;DHT22;10891;49.350;19.386;2022-09-03T09:22:18;16.40;99.90
21459;DHT22;10891;49.350;19.386;2022-09-03T09:24:49;16.30;99.90
21459;DHT22;10891;49.350;19.386;2022-09-03T09:27:18;16.20;99.90
21459;DHT22;10891;49.350;19.386;2022-09-03T09:29:48;16.50;99.90
21459;DHT22;10891;49.350;19.386;2022-09-03T09:32:16;16.40;99.90
21459;DHT22;10891;49.350;19.386;2022-09-03T09:34:45;16.70;99.90
21459;DHT22;10891;49.350;19.386;2022-09-03T09:37:15;16.70;99.90
21459;DHT22;10891;49.350;19.386;2022-09-03T09:39:54;17.00;99.90
21459;DHT22;10891;49.350;19.386;2022-09-03T09:42:22;17.00;99.90
21459;DHT22;10891;49.350;19.386;2022-09-03T09:44:50;17.00;99.90
21459;DHT22;10891;49.350;19.386;2022-09-03T09:47:23;17.10;99.90
21459;DHT22;10891;49.350;19.386;2022-09-03T09:49:52;17.30;99.90
21459;DHT22;10891;49.350;19.386;2022-09-03T09:52:22;17.60;99.90
21459;DHT22;10891;49.350;19.386;2022-09-03T09:54:51;17.30;99.90
21459;DHT22;10891;49.350;19.386;2022-09-03T09:57:21;17.30;99.90
21459;DHT22;10891;49.350;19.386;2022-09-03T09:59:49;17.40;99.90
21459;DHT22;10891;49.350;19.386;2022-09-03T10:02:22;17.60;99.90
21459;DHT22;10891;49.350;19.386;2022-09-03T10:04:52;17.80;99.90
21459;DHT22;10891;49.350;19.386;2022-09-03T10:07:24;17.90;99.90
21459;DHT22;10891;49.350;19.386;2022-09-03T10:10:03;17.80;99.90
21459;DHT22;10891;49.350;19.386;2022-09-03T10:12:37;18.00;99.90
21459;DHT22;10891;49.350;19.386;2022-09-03T10:15:20;18.00;99.90
21459;DHT22;10891;49.350;19.386;2022-09-03T10:17:55;17.90;99.90
21459;DHT22;10891;49.350;19.386;2022-09-03T10:20:30;18.30;99.90
21459;DHT22;10891;49.350;19.386;2022-09-03T10:23:07;18.80;99.70
21459;DHT22;10891;49.350;19.386;2022-09-03T10:25:41;19.20;99.80
21459;DHT22;10891;49.350;19.386;2022-09-03T10:28:14;19.10;99.10
21459;DHT22;10891;49.350;19.386;2022-09-03T10:33:47;19.40;98.90
21459;DHT22;10891;49.350;19.386;2022-09-03T10:36:22;20.00;97.60
21459;DHT22;10891;49.350;19.386;2022-09-03T10:38:57;19.60;97.20
21459;DHT22;10891;49.350;19.386;2022-09-03T10:41:40;19.10;98.00
21459;DHT22;10891;49.350;19.386;2022-09-03T10:44:28;18.80;97.80
21459;DHT22;10891;49.350;19.386;2022-09-03T10:47:13;19.10;98.30
21459;DHT22;10891;49.350;19.386;2022-09-03T10:49:50;19.60;97.20
21459;DHT22;10891;49.350;19.386;2022-09-03T10:52:26;20.10;97.60
21459;DHT22;10891;49.350;19.386;2022-09-03T10:57:53;21.30;95.30
21459;DHT22;10891;49.350;19.386;2022-09-03T11:00:22;22.00;94.40
21459;DHT22;10891;49.350;19.386;2022-09-03T11:03:17;22.20;93.40
21459;DHT22;10891;49.350;19.386;2022-09-03T11:05:55;22.20;93.10
21459;DHT22;10891;49.350;19.386;2022-09-03T11:08:26;22.50;92.90
21459;DHT22;10891;49.350;19.386;2022-09-03T11:11:01;22.60;92.40
21459;DHT22;10891;49.350;19.386;2022-09-03T11:13:32;22.20;93.00
21459;DHT22;10891;49.350;19.386;2022-09-03T11:16:04;21.60;93.80
21459;DHT22;10891;49.350;19.386;2022-09-03T11:18:39;21.60;94.50
21459;DHT22;10891;49.350;19.386;2022-09-03T11:21:09;21.20;95.10
21459;DHT22;10891;49.350;19.386;2022-09-03T11:23:40;20.90;95.00
21459;DHT22;10891;49.350;19.386;2022-09-03T11:26:12;20.90;94.80
21459;DHT22;10891;49.350;19.386;2022-09-03T11:28:45;20.80;95.30
21459;DHT22;10891;49.350;19.386;2022-09-03T11:31:25;20.80;95.30
21459;DHT22;10891;49.350;19.386;2022-09-03T11:33:59;20.90;95.30
21459;DHT22;10891;49.350;19.386;2022-09-03T11:36:32;20.90;95.20
21459;DHT22;10891;49.350;19.386;2022-09-03T11:38:59;21.00;94.80
21459;DHT22;10891;49.350;19.386;2022-09-03T11:41:33;21.40;94.80
21459;DHT22;10891;49.350;19.386;2022-09-03T11:44:10;21.40;94.20
21459;DHT22;10891;49.350;19.386;2022-09-03T11:46:52;21.20;94.00
21459;DHT22;10891;49.350;19.386;2022-09-03T11:49:27;20.60;94.60
21459;DHT22;10891;49.350;19.386;2022-09-03T11:51:58;20.40;95.30
21459;DHT22;10891;49.350;19.386;2022-09-03T11:54:25;20.30;96.20
21459;DHT22;10891;49.350;19.386;2022-09-03T11:57:06;20.10;96.30
21459;DHT22;10891;49.350;19.386;2022-09-03T11:59:36;20.10;96.70
21459;DHT22;10891;49.350;19.386;2022-09-03T12:02:24;20.40;97.00
21459;DHT22;10891;49.350;19.386;2022-09-03T12:05:02;20.60;95.90
21459;DHT22;10891;49.350;19.386;2022-09-03T12:07:42;20.80;95.40
21459;DHT22;10891;49.350;19.386;2022-09-03T12:13:25;20.40;95.60
21459;DHT22;10891;49.350;19.386;2022-09-03T12:16:17;20.20;96.00
21459;DHT22;10891;49.350;19.386;2022-09-03T12:18:46;20.50;95.40
21459;DHT22;10891;49.350;19.386;2022-09-03T12:21:17;20.80;95.80
21459;DHT22;10891;49.350;19.386;2022-09-03T12:23:47;20.90;95.70
21459;DHT22;10891;49.350;19.386;2022-09-03T12:26:15;21.20;94.30
21459;DHT22;10891;49.350;19.386;2022-09-03T12:28:46;21.10;94.40
21459;DHT22;10891;49.350;19.386;2022-09-03T12:31:16;20.90;95.40
21459;DHT22;10891;49.350;19.386;2022-09-03T12:33:52;20.80;95.30
21459;DHT22;10891;49.350;19.386;2022-09-03T12:36:20;20.60;95.40
21459;DHT22;10891;49.350;19.386;2022-09-03T12:38:48;21.00;94.80
21459;DHT22;10891;49.350;19.386;2022-09-03T12:41:23;21.10;94.50
21459;DHT22;10891;49.350;19.386;2022-09-03T12:43:54;20.90;95.00
21459;DHT22;10891;49.350;19.386;2022-09-03T12:46:25;21.00;95.00
21459;DHT22;10891;49.350;19.386;2022-09-03T12:48:55;20.80;95.30
21459;DHT22;10891;49.350;19.386;2022-09-03T12:51:22;20.60;94.70
21459;DHT22;10891;49.350;19.386;2022-09-03T12:53:50;20.60;94.90
21459;DHT22;10891;49.350;19.386;2022-09-03T12:56:20;20.80;95.60
21459;DHT22;10891;49.350;19.386;2022-09-03T12:58:52;20.30;95.70
21459;DHT22;10891;49.350;19.386;2022-09-03T13:01:26;20.40;95.70
21459;DHT22;10891;49.350;19.386;2022-09-03T13:04:01;20.60;95.30
21459;DHT22;10891;49.350;19.386;2022-09-03T13:06:32;20.80;94.50
21459;DHT22;10891;49.350;19.386;2022-09-03T13:09:03;21.20;94.70
21459;DHT22;10891;49.350;19.386;2022-09-03T13:11:33;20.90;94.50
21459;DHT22;10891;49.350;19.386;2022-09-03T13:14:04;20.90;94.90
21459;DHT22;10891;49.350;19.386;2022-09-03T13:19:42;20.70;95.40
21459;DHT22;10891;49.350;19.386;2022-09-03T13:22:20;20.40;95.90
21459;DHT22;10891;49.350;19.386;2022-09-03T13:27:55;19.70;97.30
21459;DHT22;10891;49.350;19.386;2022-09-03T13:30:32;19.50;97.90
21459;DHT22;10891;49.350;19.386;2022-09-03T13:33:06;19.20;97.80
21459;DHT22;10891;49.350;19.386;2022-09-03T13:35:39;19.30;98.00
21459;DHT22;10891;49.350;19.386;2022-09-03T13:38:19;19.40;98.00
21459;DHT22;10891;49.350;19.386;2022-09-03T13:40:51;19.60;98.00
21459;DHT22;10891;49.350;19.386;2022-09-03T13:43:26;19.80;98.30
21459;DHT22;10891;49.350;19.386;2022-09-03T13:46:01;20.00;97.50
21459;DHT22;10891;49.350;19.386;2022-09-03T13:48:33;20.50;96.90
21459;DHT22;10891;49.350;19.386;2022-09-03T13:51:24;20.70;96.40
21459;DHT22;10891;49.350;19.386;2022-09-03T13:54:02;20.60;96.10
21459;DHT22;10891;49.350;19.386;2022-09-03T13:56:41;20.60;96.80
21459;DHT22;10891;49.350;19.386;2022-09-03T13:59:16;20.10;96.70
21459;DHT22;10891;49.350;19.386;2022-09-03T14:02:05;20.10;97.30
21459;DHT22;10891;49.350;19.386;2022-09-03T14:04:46;20.20;97.00
21459;DHT22;10891;49.350;19.386;2022-09-03T14:07:18;20.30;96.80
21459;DHT22;10891;49.350;19.386;2022-09-03T14:09:53;20.40;96.80
21459;DHT22;10891;49.350;19.386;2022-09-03T14:12:34;20.20;96.90
21459;DHT22;10891;49.350;19.386;2022-09-03T14:15:14;20.20;96.60
21459;DHT22;10891;49.350;19.386;2022-09-03T14:17:47;20.00;96.70
21459;DHT22;10891;49.350;19.386;2022-09-03T14:20:21;20.00;97.00
21459;DHT22;10891;49.350;19.386;2022-09-03T14:22:53;20.10;97.10
21459;DHT22;10891;49.350;19.386;2022-09-03T14:25:22;20.20;96.60
21459;DHT22;10891;49.350;19.386;2022-09-03T14:27:49;20.20;96.60
21459;DHT22;10891;49.350;19.386;2022-09-03T14:30:23;20.10;96.70
21459;DHT22;10891;49.350;19.386;2022-09-03T14:32:58;20.00;96.90
21459;DHT22;10891;49.350;19.386;2022-09-03T14:35:34;19.80;97.10
21459;DHT22;10891;49.350;19.386;2022-09-03T14:38:27;19.80;97.10
21459;DHT22;10891;49.350;19.386;2022-09-03T14:41:03;19.80;97.70
21459;DHT22;10891;49.350;19.386;2022-09-03T14:43:51;19.80;97.40
21459;DHT22;10891;49.350;19.386;2022-09-03T14:46:38;19.80;97.30
21459;DHT22;10891;49.350;19.386;2022-09-03T14:49:32;20.10;97.30
21459;DHT22;10891;49.350;19.386;2022-09-03T14:52:11;20.00;96.60
21459;DHT22;10891;49.350;19.386;2022-09-03T14:55:06;20.00;97.00
21459;DHT22;10891;49.350;19.386;2022-09-03T14:57:47;20.00;97.00
21459;DHT22;10891;49.350;19.386;2022-09-03T15:00:20;19.60;97.00
21459;DHT22;10891;49.350;19.386;2022-09-03T15:03:26;19.40;97.50
21459;DHT22;10891;49.350;19.386;2022-09-03T15:06:10;20.10;97.70
21459;DHT22;10891;49.350;19.386;2022-09-03T15:08:53;20.20;97.90
21459;DHT22;10891;49.350;19.386;2022-09-03T15:11:28;20.20;98.10
21459;DHT22;10891;49.350;19.386;2022-09-03T15:14:04;19.40;98.80
21459;DHT22;10891;49.350;19.386;2022-09-03T15:16:43;19.10;99.60
21459;DHT22;10891;49.350;19.386;2022-09-03T15:19:17;18.90;99.90
21459;DHT22;10891;49.350;19.386;2022-09-03T15:22:05;18.80;99.90
21459;DHT22;10891;49.350;19.386;2022-09-03T15:24:42;18.40;99.90
21459;DHT22;10891;49.350;19.386;2022-09-03T15:27:19;18.30;99.90
21459;DHT22;10891;49.350;19.386;2022-09-03T15:29:59;18.10;99.90
21459;DHT22;10891;49.350;19.386;2022-09-03T15:32:40;18.00;99.90
21459;DHT22;10891;49.350;19.386;2022-09-03T15:35:15;17.90;99.90
21459;DHT22;10891;49.350;19.386;2022-09-03T15:37:51;17.70;99.90
21459;DHT22;10891;49.350;19.386;2022-09-03T15:40:26;17.50;99.90
21459;DHT22;10891;49.350;19.386;2022-09-03T15:42:59;17.40;99.90
21459;DHT22;10891;49.350;19.386;2022-09-03T15:45:35;17.30;99.90
21459;DHT22;10891;49.350;19.386;2022-09-03T15:48:12;17.20;99.90
21459;DHT22;10891;49.350;19.386;2022-09-03T15:50:51;17.20;99.90
21459;DHT22;10891;49.350;19.386;2022-09-03T15:53:29;16.90;99.90
21459;DHT22;10891;49.350;19.386;2022-09-03T15:56:09;16.80;99.90
21459;DHT22;10891;49.350;19.386;2022-09-03T15:58:42;16.60;99.90
21459;DHT22;10891;49.350;19.386;2022-09-03T16:01:21;16.50;99.90
21459;DHT22;10891;49.350;19.386;2022-09-03T16:03:57;16.40;99.90
21459;DHT22;10891;49.350;19.386;2022-09-03T16:06:32;16.30;99.90
21459;DHT22;10891;49.350;19.386;2022-09-03T16:09:08;16.40;99.90
21459;DHT22;10891;49.350;19.386;2022-09-03T16:11:51;16.20;99.90